Lahaina Weather    as of  Fri 20:20 10/31      Conditions     METAR     Leeward Waters     Hawaiian Islands     Policies
TONIGHT
Mostly cloudy with scattered showers. Breezy. Lows 69-76. East winds 15-20 mph. Chance rain 50%.
SATURDAY
Partly sunny with scattered showers morning,then mostly sunny with isolated showers afternoon. Breezy. Highs 81-86. East winds 15-20 mph. Chance rain 50%.
SATURDAY NIGHT
Mostly cloudy evening then becoming partly cloudy. Scattered showers. Breezy. Lows 69-76. East winds 15-20 mph. Chance rain 50%.
SUNDAY
Mostly sunny with scattered showers. Breezy. Highs 81-86. Northeast winds 15-25 mph. Gusts up-40 mph late morning and afternoon. Chance rain 40%.
SUNDAY NIGHT
Mostly cloudy evening then becoming partly cloudy. Scattered showers. Lows 69-76. East winds 10-15 mph. Chance rain 50%.
Maui Satellite
Expected Radar Hazards
Predominant Wx
Radar
Hazard Chart
Windspeed Forecast Wind Gust Forecast Tropical Outlook
Windspeed Chart
Windgust Chart
Satellite

Current Conditions TOP

LocationWeatherTemp (F)Wind
Speed
Wind
Gusts
Wind
Dir
VisibilityDewpointPressure
(mb)
Lahaina / West MauiA Few Clouds and Breezy79.020.7--Northeast15.0069.8--
Lanai City AirportFair73.013.8--Northeast10.0064.91016.9
Molokai AirportFair76.012.719.6Northeast10.0070.01017.9
Kahului AirportMostly Cloudy77.010.4--Northeast10.0069.11018.1
Honolulu International AirportPartly Cloudy79.012.7--East10.0069.11017.3
Kailua / KonaA Few Clouds80.04.6--Southeast10.0070.01015.5

METAR TOP

PHJH 010350Z 03018KT 15SM FEW025 FEW045 26/21 A3000 RMK LAST
PHNY 010556Z AUTO 06012KT 10SM CLR 23/18 A3010 RMK AO2 TSNO 5////
PHMK 010554Z AUTO 06011G17KT 020V090 10SM CLR 24/21 A3006 RMK AO2
PHOG 010554Z 05009KT 10SM FEW035 BKN075 25/21 A3005 RMK AO2
PHNL 010553Z 07011KT 10SM FEW023 SCT055 26/21 A3004 RMK AO2
PHKO 010553Z 12004KT 10SM FEW060 27/21 A2999 RMK AO2 SLP155
Tap to learn about METAR'

Leeward Waters Forecasts TOP

MAUI COUNTY LEEWARD WATERS MAALAEA BAY PAILOLO CHANNEL
TONIGHT
East winds 20 kt. Wind waves 7 ft. North swell 6 ft. Scattered showers.
Headlines
SMALL CRAFT ADVISORY IN EFFECT UNTIL 6 AM HST SUNDAY
Headlines
SMALL CRAFT ADVISORY IN EFFECT UNTIL 6 AM HST SUNDAY
SATURDAY
East winds 20 kt. Wind waves 7 ft. North swell 4 ft. Scattered showers morning, then isolated showers afternoon.
TONIGHT
Northeast winds-25 kt. Wind waves 6 ft. Isolated showers evening, then scattered showers after midnight.
TONIGHT
East winds-25 kt. Wind waves 10 ft. North swell 6 ft. Scattered showers.
SATURDAY NIGHT
East winds 20 kt. Wind waves 7 ft. North swell 3 ft. Isolated showers evening, then scattered showers after midnight.
SATURDAY
Northeast winds-25 kt. Wind waves 7 ft. Scattered showers morning, then isolated showers afternoon.
SATURDAY
East winds-25 kt. Wind waves 11 ft. North swell 4 ft. Scattered showers.
SUNDAY
Northeast winds 20 kt. Wind waves 7 ft. North swell 3 ft until late afternoon. Scattered showers.
SATURDAY NIGHT
Northeast winds-25 kt. Wind waves 6 ft. Isolated showers through the night.
SATURDAY NIGHT
East winds-25 kt. Wind waves 9 ft. North swell 3 ft. Scattered showers evening, then isolated showers after midnight.
SUNDAY NIGHT
East winds 15 kt. Wind waves 4 ft. Scattered showers.
SUNDAY
North winds-25 kt. Wind waves 7 ft. Scattered showers morning, then isolated showers afternoon.
SUNDAY
East winds-25 kt. Wind waves 10 ft. North swell 3 ft until late afternoon. Scattered showers.

Hawaiian Islands Weather TOP

Synopsis: Wet trade winds weather will continue into next week, especially across windward areas. Breezy trade winds will continue tonight before dropping-moderate levels over the weekend. Trade winds will continue next week.
Discussion: Clouds and showers associated, dissipated front will continue-bringf and on showers-the smaller islands. A separate batch low clouds upstream the Big Island will maintain passing showers over the windward areas. Most showers are fast moving so any downpours will likely be short-lived. A 1032 mb high pressure-the north is ushering in strong trade winds across the state. Breezy conditions will continue through tonight as the high moves east across the north Pacific. A weak upper level low currently over the islands is providing slight instability-the atmosphere ...
Aviation: Shra associated with an old front will continue-affect the islands tonight with at least tempo MVFR in some areas. Although cloud tops on IR imagery have warmed some, there are still some TCU out there as mid-afternoon. Dropped sigmet sierra for TS near the phnl-ca flight routes, but keeping airmet in place for the most likely spots-see mt obsc tonight, namely n/e facing slopes from kauai-molokai. Will likely have-add windward Big Island slopes as well at some point. Radar velocity azimuth display wind profiles show boundary layer winds remain 20-30 knot range, ...
Marine: A combination north and trade wind swells continue-produce elevated surf on north and east facing shores. The high surf advisory for east shores has been extended through Saturday afternoon. Surf along south facing shores will remain small through Monday,, slight bump expected Tuesday as a small long period swell arrives. Small/moderate NNW and N swells are expected early next week. A small craft advisory /sca/ remains posted through 6 am Saturday for most coastal areas due-the strong winds and large seas. Winds and seas should subside in some areas by Saturday, but SCA ...

Policies TOP

Terms of Service
USE THIS SITE AT YOUR OWN RISK!!! This page is an artistic expression not scientific communication. No warranties expressed or implied. None. Zip. Nada. This entertainment site is a programming exercise for retrieving NOAA/NWS/NASA data and experimenting with layout. No site data are verified. Timeliness not assured. Browsers other than Chrome might be sad.

Privacy
lahainaweather.com (or .org, .net) does NOT request, record nor retain any personally identifiable information. Page views may be counted. Caller's IP address may be logged.